Time;durP1;ratioP1;P1;durP2;ratioP2;P2;SDS_P1;SDS_P2;PMS_P1;PMS_P2;Temp;Humidity;BMP_temperature;BMP_pressure;BME280_temperature;BME280_humidity;BME280_pressure;Samples;Min_cycle;Max_cycle;Signal;HPM_P1;HPM_P2
2022/02/12 00:00:39;;;;;;;14.65;12.43;;;6.80;69.30;;;;;;5054619;28;20029;-62
2022/02/12 00:03:05;;;;;;;13.15;10.07;;;6.80;69.40;;;;;;5054469;28;20025;-62
2022/02/12 00:05:32;;;;;;;9.27;7.85;;;6.80;69.60;;;;;;5054409;28;20566;-62
2022/02/12 00:07:58;;;;;;;9.35;7.63;;;6.80;69.70;;;;;;5057946;28;20094;-62
2022/02/12 00:10:27;;;;;;;9.75;7.13;;;6.70;69.60;;;;;;5068001;28;20039;-62
2022/02/12 00:12:52;;;;;;;10.65;7.45;;;6.70;69.70;;;;;;5074236;28;20108;-62
2022/02/12 00:15:19;;;;;;;8.65;6.80;;;6.70;70.00;;;;;;5074212;28;20107;-62
2022/02/12 00:17:45;;;;;;;8.52;6.82;;;6.60;69.90;;;;;;5074065;28;20024;-62
2022/02/12 00:20:12;;;;;;;8.07;6.43;;;6.60;70.10;;;;;;5074207;28;20058;-62
2022/02/12 00:22:38;;;;;;;8.07;6.15;;;6.60;70.20;;;;;;5074126;28;20063;-62
2022/02/12 00:25:04;;;;;;;8.55;7.00;;;6.50;70.30;;;;;;5074234;28;20016;-62
2022/02/12 00:27:30;;;;;;;7.82;6.25;;;6.50;70.40;;;;;;5070099;28;20388;-62
2022/02/12 00:29:56;;;;;;;7.28;6.53;;;6.50;70.40;;;;;;5061579;28;20037;-62
2022/02/12 00:32:22;;;;;;;8.85;6.65;;;6.50;70.40;;;;;;5073805;28;20491;-62
2022/02/12 00:34:48;;;;;;;8.25;6.63;;;6.50;70.40;;;;;;5066383;28;20057;-62
2022/02/12 00:37:14;;;;;;;10.25;7.47;;;6.50;70.40;;;;;;5057779;28;20033;-62
2022/02/12 00:39:39;;;;;;;11.45;7.53;;;6.50;70.40;;;;;;5073790;28;20112;-62
2022/02/12 00:42:06;;;;;;;11.13;8.18;;;6.50;70.40;;;;;;5060073;28;20025;-62
2022/02/12 00:44:32;;;;;;;9.23;7.15;;;6.40;70.40;;;;;;5049680;28;20060;-62
2022/02/12 00:46:58;;;;;;;10.93;7.97;;;6.40;70.60;;;;;;5050228;28;20036;-62
2022/02/12 00:49:24;;;;;;;10.95;7.63;;;6.40;70.70;;;;;;5053481;28;20032;-62
2022/02/12 00:51:50;;;;;;;9.60;7.55;;;6.30;70.80;;;;;;5053733;28;20036;-62
2022/02/12 00:54:17;;;;;;;9.88;7.78;;;6.30;70.80;;;;;;5053455;28;20025;-62
2022/02/12 00:56:42;;;;;;;9.68;7.40;;;6.30;70.90;;;;;;5053390;28;20025;-62
2022/02/12 00:59:08;;;;;;;10.43;7.68;;;6.20;71.00;;;;;;5053140;28;20036;-62
2022/02/12 01:01:34;;;;;;;9.57;7.70;;;6.30;71.30;;;;;;5058207;28;20388;-62
2022/02/12 01:04:01;;;;;;;9.20;6.65;;;6.30;71.50;;;;;;5073200;28;20029;-62
2022/02/12 01:06:28;;;;;;;10.05;7.88;;;6.30;71.50;;;;;;5073266;28;20426;-62
2022/02/12 01:08:54;;;;;;;8.88;6.85;;;6.30;71.60;;;;;;5073401;28;20499;-62
2022/02/12 01:11:19;;;;;;;8.48;7.10;;;6.40;71.50;;;;;;5073463;28;20108;-62
2022/02/12 01:13:45;;;;;;;11.85;8.80;;;6.40;71.50;;;;;;5073662;28;20043;-62
2022/02/12 01:16:11;;;;;;;10.30;8.27;;;6.50;71.50;;;;;;5073182;28;20032;-62
2022/02/12 01:18:37;;;;;;;9.18;7.03;;;6.50;71.50;;;;;;5055143;28;20493;-62
2022/02/12 01:21:03;;;;;;;10.45;7.63;;;6.50;71.40;;;;;;5066394;28;20094;-62
2022/02/12 01:23:28;;;;;;;8.13;6.60;;;6.60;71.50;;;;;;5073150;28;20024;-62
2022/02/12 01:25:54;;;;;;;9.63;7.65;;;6.60;71.40;;;;;;5073041;28;20017;-62
2022/02/12 01:28:20;;;;;;;10.45;7.82;;;6.60;71.20;;;;;;5065708;28;20068;-62
2022/02/12 01:30:46;;;;;;;13.00;8.50;;;6.60;71.30;;;;;;5053281;28;20093;-62
2022/02/12 01:33:13;;;;;;;10.60;7.32;;;6.60;71.30;;;;;;5052812;28;20108;-62
2022/02/12 01:35:39;;;;;;;10.25;8.40;;;6.70;71.30;;;;;;5059423;28;20068;-62
2022/02/12 01:38:05;;;;;;;10.75;8.18;;;6.70;71.40;;;;;;5064432;28;20056;-62
2022/02/12 01:40:31;;;;;;;11.63;7.82;;;6.70;71.30;;;;;;5052867;28;20030;-62
2022/02/12 01:42:57;;;;;;;10.57;8.52;;;6.70;71.40;;;;;;5060118;28;20050;-62
2022/02/12 01:45:23;;;;;;;10.88;8.10;;;6.70;71.40;;;;;;5072932;28;20025;-62
2022/02/12 01:47:48;;;;;;;12.15;9.85;;;6.80;71.50;;;;;;5057012;28;20396;-62
2022/02/12 01:50:15;;;;;;;12.05;9.68;;;6.80;71.60;;;;;;5049172;28;20104;-62
2022/02/12 01:52:43;;;;;;;13.75;10.23;;;6.80;71.70;;;;;;5051434;28;20053;-62
2022/02/12 01:55:09;;;;;;;13.77;11.27;;;6.80;71.80;;;;;;5052994;28;20477;-62
2022/02/12 01:57:36;;;;;;;14.80;11.63;;;6.80;72.00;;;;;;5052137;28;20075;-62
2022/02/12 02:00:05;;;;;;;12.80;10.50;;;6.80;72.10;;;;;;5039180;28;20108;-62
2022/02/12 02:02:30;;;;;;;13.95;10.48;;;6.80;72.10;;;;;;5066984;28;20108;-62
2022/02/12 02:04:56;;;;;;;13.07;10.60;;;6.90;72.20;;;;;;5070999;28;20107;-62
2022/02/12 02:07:22;;;;;;;14.13;11.10;;;6.90;72.30;;;;;;5063522;28;20108;-62
2022/02/12 02:09:48;;;;;;;15.45;11.80;;;6.90;72.30;;;;;;5052611;28;20024;-62
2022/02/12 02:12:13;;;;;;;16.60;12.00;;;6.90;72.40;;;;;;5052603;28;20384;-62
2022/02/12 02:14:40;;;;;;;14.63;10.93;;;6.90;72.50;;;;;;5052275;28;20381;-62
2022/02/12 02:17:07;;;;;;;15.27;11.90;;;6.90;72.80;;;;;;5052446;28;20036;-62
2022/02/12 02:19:33;;;;;;;19.63;12.18;;;7.00;73.10;;;;;;5052566;28;20419;-62
2022/02/12 02:22:01;;;;;;;17.90;12.60;;;7.00;73.10;;;;;;5052758;28;20025;-62
2022/02/12 02:24:27;;;;;;;20.92;14.80;;;7.10;73.00;;;;;;5052284;28;20074;-62
2022/02/12 02:27:08;;;;;;;33.00;21.33;;;7.10;73.10;;;;;;5052104;28;20086;-62
2022/02/12 02:29:37;;;;;;;29.85;19.23;;;7.10;73.30;;;;;;5055203;28;20439;-62
2022/02/12 02:32:03;;;;;;;23.08;17.08;;;7.10;73.50;;;;;;5066657;28;20037;-62
2022/02/12 02:34:29;;;;;;;31.70;19.80;;;7.10;73.70;;;;;;5057170;28;20123;-62
2022/02/12 02:36:55;;;;;;;33.92;21.70;;;7.10;73.90;;;;;;5063897;28;20527;-62
2022/02/12 02:39:20;;;;;;;29.88;20.38;;;7.10;74.10;;;;;;5067225;28;20025;-62
2022/02/12 02:41:46;;;;;;;31.85;21.45;;;7.10;74.40;;;;;;5060903;28;20017;-62
2022/02/12 02:44:12;;;;;;;22.85;17.13;;;7.10;74.40;;;;;;5051916;28;20017;-62
2022/02/12 02:46:38;;;;;;;24.20;17.42;;;7.10;74.40;;;;;;5052126;28;20025;-62
2022/02/12 02:49:03;;;;;;;16.73;13.00;;;7.10;74.90;;;;;;5051826;28;20043;-62
2022/02/12 02:57:14;;;;;;;18.20;14.73;;;7.00;74.70;;;;;;5046052;28;20515;-62
2022/02/12 02:59:39;;;;;;;19.10;15.48;;;7.00;74.90;;;;;;5051135;28;20064;-62
2022/02/12 03:02:05;;;;;;;23.83;17.73;;;6.90;75.10;;;;;;5051898;28;20021;-62
2022/02/12 03:04:31;;;;;;;20.80;15.85;;;6.90;75.40;;;;;;5051584;28;20025;-62
2022/02/12 03:06:57;;;;;;;22.60;16.77;;;6.90;75.70;;;;;;5056598;28;20052;-62
2022/02/12 03:09:23;;;;;;;24.85;18.92;;;6.80;75.70;;;;;;5059686;28;20477;-62
2022/02/12 03:11:49;;;;;;;22.42;19.02;;;6.90;76.30;;;;;;5052523;28;20021;-62
2022/02/12 03:14:15;;;;;;;24.75;20.13;;;6.80;76.60;;;;;;5055532;28;20464;-62
2022/02/12 03:16:41;;;;;;;24.25;20.13;;;6.80;76.70;;;;;;5055132;28;20079;-62
2022/02/12 03:19:06;;;;;;;24.85;19.77;;;6.90;76.90;;;;;;5055230;28;20108;-62
2022/02/12 03:21:32;;;;;;;25.77;19.88;;;6.90;76.90;;;;;;5055202;28;20028;-62
2022/02/12 03:23:57;;;;;;;24.20;19.52;;;6.90;76.70;;;;;;5054977;28;20020;-62
2022/02/12 03:26:23;;;;;;;26.20;19.95;;;6.90;76.90;;;;;;5055010;28;20420;-62
2022/02/12 03:28:49;;;;;;;25.60;20.05;;;6.90;77.00;;;;;;5054734;28;20029;-62
2022/02/12 03:31:15;;;;;;;26.83;21.38;;;6.90;77.00;;;;;;5073901;28;20073;-62
2022/02/12 03:33:41;;;;;;;25.35;20.38;;;6.90;77.10;;;;;;5054384;28;20021;-62
2022/02/12 03:36:07;;;;;;;25.15;21.38;;;6.90;77.30;;;;;;5073665;28;20021;-62
2022/02/12 03:38:35;;;;;;;25.48;20.83;;;6.90;77.30;;;;;;5054410;28;20032;-62
2022/02/12 03:41:04;;;;;;;28.08;21.15;;;6.80;77.80;;;;;;5055682;28;20431;-62
2022/02/12 03:43:32;;;;;;;27.85;21.58;;;6.80;77.70;;;;;;5074807;28;20017;-62
2022/02/12 03:45:58;;;;;;;29.17;22.85;;;6.80;77.80;;;;;;5074656;28;20036;-62
2022/02/12 03:48:26;;;;;;;27.92;22.20;;;6.80;77.90;;;;;;5074798;28;20103;-62
2022/02/12 03:50:52;;;;;;;28.08;22.70;;;6.90;78.30;;;;;;5063615;28;20044;-62
2022/02/12 03:53:18;;;;;;;27.05;21.33;;;6.90;78.10;;;;;;5051185;28;20428;-62
2022/02/12 03:55:43;;;;;;;26.30;21.42;;;6.90;78.00;;;;;;5054633;28;20032;-62
2022/02/12 03:58:14;;;;;;;28.33;21.92;;;6.90;78.10;;;;;;5054047;28;20032;-62
2022/02/12 04:00:42;;;;;;;29.48;22.13;;;6.90;78.20;;;;;;5070795;28;20464;-62
2022/02/12 04:03:08;;;;;;;24.45;20.50;;;6.90;78.50;;;;;;5066304;28;20473;-62
2022/02/12 04:05:34;;;;;;;31.65;23.27;;;6.90;78.60;;;;;;5044938;28;20029;-62
2022/02/12 04:08:00;;;;;;;31.27;22.52;;;6.90;78.80;;;;;;5059927;28;20086;-62
2022/02/12 04:10:27;;;;;;;26.17;20.60;;;6.90;78.80;;;;;;5074641;28;20028;-62
2022/02/12 04:12:53;;;;;;;26.95;22.45;;;6.90;78.90;;;;;;5057969;28;20116;-62
2022/02/12 04:15:19;;;;;;;29.02;22.67;;;6.90;78.90;;;;;;5054305;28;20049;-62
2022/02/12 04:17:46;;;;;;;28.95;22.85;;;6.90;79.00;;;;;;5053997;28;20488;-62
2022/02/12 04:20:15;;;;;;;30.58;23.83;;;6.90;79.00;;;;;;5053782;28;20381;-62
2022/02/12 04:22:41;;;;;;;29.58;22.73;;;7.00;79.00;;;;;;5053882;28;20021;-62
2022/02/12 04:25:18;;;;;;;29.33;23.45;;;7.00;79.10;;;;;;5054124;28;20029;-62
2022/02/12 04:27:44;;;;;;;33.83;24.48;;;7.00;79.00;;;;;;5053790;28;20036;-62
2022/02/12 04:30:11;;;;;;;28.38;23.20;;;7.00;79.00;;;;;;5054003;28;20021;-62
2022/02/12 04:32:37;;;;;;;30.63;23.58;;;7.00;78.90;;;;;;5055132;28;20021;-62
2022/02/12 04:35:04;;;;;;;29.90;23.10;;;7.00;79.00;;;;;;5043249;28;20071;-62
2022/02/12 04:37:31;;;;;;;29.13;23.08;;;7.10;79.00;;;;;;5051792;28;20108;-62
2022/02/12 04:39:57;;;;;;;26.60;21.52;;;7.10;78.90;;;;;;5053564;28;20033;-62
2022/02/12 04:42:23;;;;;;;30.38;22.27;;;7.10;78.90;;;;;;5060346;28;20050;-62
2022/02/12 04:44:50;;;;;;;28.35;22.30;;;7.20;78.80;;;;;;5073585;28;20650;-62
2022/02/12 04:47:18;;;;;;;29.25;22.55;;;7.20;78.80;;;;;;5073523;28;20020;-62
2022/02/12 04:49:44;;;;;;;28.00;20.17;;;7.30;78.70;;;;;;5068760;28;20511;-62
2022/02/12 04:52:12;;;;;;;27.98;20.73;;;7.30;78.50;;;;;;5072824;28;20033;-62
2022/02/12 04:54:39;;;;;;;27.58;21.35;;;7.30;78.40;;;;;;5057775;28;20033;-62
2022/02/12 04:57:06;;;;;;;31.10;23.27;;;7.40;78.40;;;;;;5053122;28;20032;-62
2022/02/12 04:59:31;;;;;;;29.20;21.63;;;7.40;78.40;;;;;;5052909;28;20035;-62
2022/02/12 05:01:57;;;;;;;28.25;21.48;;;7.40;78.40;;;;;;5053536;28;20021;-62
2022/02/12 05:04:23;;;;;;;30.63;21.58;;;7.50;78.30;;;;;;5052977;28;20112;-62
2022/02/12 05:06:49;;;;;;;28.60;20.80;;;7.50;78.20;;;;;;5052832;28;20082;-62
2022/02/12 05:09:16;;;;;;;30.65;22.00;;;7.50;78.00;;;;;;5056228;28;20487;-62
2022/02/12 05:11:42;;;;;;;28.20;21.60;;;7.60;78.00;;;;;;5049266;28;20389;-62
2022/02/12 05:14:09;;;;;;;25.52;20.45;;;7.60;77.80;;;;;;5072806;28;20492;-62
2022/02/12 05:16:35;;;;;;;27.92;20.98;;;7.60;77.90;;;;;;5060476;28;20081;-62
2022/02/12 05:19:01;;;;;;;27.35;21.77;;;7.60;77.80;;;;;;5072601;28;20119;-62
2022/02/12 05:21:26;;;;;;;26.83;20.25;;;7.60;77.70;;;;;;5058505;28;20032;-62
2022/02/12 05:23:52;;;;;;;28.73;20.48;;;7.60;77.60;;;;;;5066931;28;20058;-62
2022/02/12 05:26:18;;;;;;;28.05;21.52;;;7.70;77.60;;;;;;5072853;28;20028;-62
2022/02/12 05:28:44;;;;;;;24.88;19.33;;;7.70;77.40;;;;;;5072985;28;20107;-62
2022/02/12 05:31:10;;;;;;;26.30;19.60;;;7.70;77.50;;;;;;5058581;28;20025;-62
2022/02/12 05:33:37;;;;;;;24.73;17.77;;;7.70;77.30;;;;;;5049577;28;20032;-62
2022/02/12 05:36:09;;;;;;;20.42;16.63;;;7.70;77.20;;;;;;5052067;28;20025;-62
2022/02/12 05:38:41;;;;;;;21.27;18.10;;;7.80;77.10;;;;;;5052004;28;20017;-62
2022/02/12 05:41:12;;;;;;;22.48;16.77;;;7.70;76.90;;;;;;5056352;28;20055;-62
2022/02/12 05:43:38;;;;;;;19.80;15.77;;;7.80;76.70;;;;;;5072601;28;20467;-62
2022/02/12 05:46:05;;;;;;;19.88;16.48;;;7.80;76.70;;;;;;5072654;28;20531;-62
2022/02/12 05:48:31;;;;;;;19.83;16.27;;;7.80;76.60;;;;;;5072434;28;20430;-62
2022/02/12 05:50:57;;;;;;;19.88;14.93;;;7.80;76.50;;;;;;5058035;28;20504;-62
2022/02/12 05:53:23;;;;;;;19.20;14.73;;;7.80;76.50;;;;;;5055201;28;20020;-62
2022/02/12 05:55:49;;;;;;;18.00;14.00;;;7.80;76.30;;;;;;5051776;28;20106;-62
2022/02/12 05:58:15;;;;;;;18.52;14.85;;;7.80;76.40;;;;;;5063641;28;20112;-62
2022/02/12 06:00:41;;;;;;;17.77;14.32;;;7.80;76.50;;;;;;5051874;28;20056;-62
2022/02/12 06:03:07;;;;;;;16.25;13.50;;;7.80;76.50;;;;;;5056083;28;20426;-62
2022/02/12 06:05:32;;;;;;;17.50;13.73;;;7.80;76.60;;;;;;5059912;28;20021;-62
2022/02/12 06:08:01;;;;;;;16.25;13.35;;;7.80;76.50;;;;;;5064488;28;20055;-62
2022/02/12 06:10:27;;;;;;;17.88;13.68;;;7.80;76.40;;;;;;5052012;28;20021;-62
2022/02/12 06:12:54;;;;;;;16.88;13.43;;;7.80;76.30;;;;;;5049247;28;20126;-63
2022/02/12 06:15:20;;;;;;;15.60;12.38;;;7.80;76.40;;;;;;5047362;28;20319;-62
2022/02/12 06:17:46;;;;;;;16.77;13.35;;;7.90;76.30;;;;;;5049857;28;20029;-62
2022/02/12 06:20:11;;;;;;;16.92;13.18;;;7.90;76.10;;;;;;5046737;28;20052;-62
2022/02/12 06:22:37;;;;;;;14.77;11.85;;;7.90;76.10;;;;;;5048538;28;20029;-62
2022/02/12 06:25:04;;;;;;;16.10;11.95;;;7.80;76.10;;;;;;5043236;28;20036;-62
2022/02/12 06:27:30;;;;;;;17.38;12.95;;;7.80;76.20;;;;;;5051281;28;20037;-62
2022/02/12 06:29:56;;;;;;;15.50;12.30;;;7.80;76.40;;;;;;5054641;28;20104;-62
2022/02/12 06:32:22;;;;;;;15.60;12.65;;;7.80;76.60;;;;;;5043835;28;20080;-62
2022/02/12 06:34:48;;;;;;;14.10;11.55;;;7.80;76.80;;;;;;5037557;28;20057;-62
2022/02/12 06:37:14;;;;;;;14.63;11.80;;;7.70;77.00;;;;;;5049715;28;20457;-62
2022/02/12 06:39:39;;;;;;;14.38;12.23;;;7.70;77.00;;;;;;5047070;28;20039;-62
2022/02/12 06:42:05;;;;;;;12.48;10.52;;;7.60;77.30;;;;;;5051583;28;20104;-62
2022/02/12 06:44:31;;;;;;;13.30;11.23;;;7.50;77.40;;;;;;5051686;28;20028;-62
2022/02/12 06:46:56;;;;;;;14.85;11.95;;;7.50;77.60;;;;;;5054408;28;20028;-62
2022/02/12 06:49:23;;;;;;;15.30;12.23;;;7.40;77.80;;;;;;5053279;28;20029;-62
2022/02/12 06:51:49;;;;;;;14.07;11.13;;;7.40;78.10;;;;;;5055117;28;20029;-62
2022/02/12 06:54:15;;;;;;;12.55;10.82;;;7.40;78.30;;;;;;5055184;28;20236;-62
2022/02/12 06:56:40;;;;;;;14.00;11.65;;;7.30;78.30;;;;;;5055267;28;20040;-62
2022/02/12 06:59:06;;;;;;;13.95;10.48;;;7.30;78.50;;;;;;5055884;28;20021;-62
2022/02/12 07:01:31;;;;;;;13.77;11.43;;;7.20;78.60;;;;;;5056092;28;20029;-62
2022/02/12 07:03:57;;;;;;;16.98;12.65;;;7.20;78.90;;;;;;5055664;28;20396;-62
2022/02/12 07:06:26;;;;;;;13.88;11.07;;;7.10;78.50;;;;;;5054613;28;20027;-62
2022/02/12 07:08:53;;;;;;;15.57;11.82;;;6.90;78.20;;;;;;5054865;28;20021;-62
2022/02/12 07:11:18;;;;;;;12.57;9.93;;;6.70;78.10;;;;;;5054092;28;20040;-62
2022/02/12 07:13:45;;;;;;;13.75;10.18;;;6.60;78.20;;;;;;5056036;28;20028;-62
2022/02/12 07:16:11;;;;;;;10.80;8.70;;;6.40;78.20;;;;;;5058350;28;20120;-62
2022/02/12 07:18:36;;;;;;;10.50;8.07;;;6.20;78.30;;;;;;5058150;28;20107;-62
2022/02/12 07:21:02;;;;;;;11.50;8.18;;;6.00;78.60;;;;;;5053642;28;20047;-62
2022/02/12 07:23:28;;;;;;;10.75;8.05;;;5.90;78.90;;;;;;5047788;28;20059;-62
2022/02/12 07:25:54;;;;;;;11.38;8.80;;;5.70;79.30;;;;;;5053911;28;20469;-62
2022/02/12 07:28:20;;;;;;;11.25;7.75;;;5.60;79.60;;;;;;5054366;28;20111;-62
2022/02/12 07:30:47;;;;;;;8.63;7.25;;;5.40;79.80;;;;;;5053679;28;20033;-62
2022/02/12 07:33:13;;;;;;;8.15;5.78;;;5.40;80.20;;;;;;5057531;28;20048;-62
2022/02/12 07:35:39;;;;;;;7.47;6.32;;;5.30;80.30;;;;;;5056587;28;20447;-62
2022/02/12 07:38:07;;;;;;;7.18;5.22;;;5.20;80.70;;;;;;5056148;28;20079;-62
2022/02/12 07:40:33;;;;;;;6.03;5.18;;;5.20;80.60;;;;;;5053959;28;20388;-62
2022/02/12 07:42:59;;;;;;;5.78;4.28;;;5.10;80.80;;;;;;5057734;28;20313;-62
2022/02/12 07:45:25;;;;;;;5.60;4.43;;;5.10;80.70;;;;;;5052750;28;20107;-62
2022/02/12 07:47:54;;;;;;;4.15;3.50;;;5.00;80.80;;;;;;5052800;28;20036;-62
2022/02/12 07:50:19;;;;;;;4.53;3.65;;;5.00;80.90;;;;;;5052227;28;20624;-62
2022/02/12 07:52:45;;;;;;;4.50;3.20;;;5.00;81.00;;;;;;5046118;28;20037;-62
2022/02/12 07:55:12;;;;;;;3.53;3.00;;;5.00;81.00;;;;;;5052637;28;20028;-62
2022/02/12 07:57:38;;;;;;;4.60;3.28;;;5.00;81.30;;;;;;5049155;28;20554;-62
2022/02/12 08:00:09;;;;;;;3.40;3.10;;;5.10;81.30;;;;;;5056378;28;20112;-62
2022/02/12 08:02:34;;;;;;;3.78;3.05;;;5.10;81.20;;;;;;5047819;28;20451;-62
2022/02/12 08:05:00;;;;;;;3.20;2.95;;;5.00;81.10;;;;;;5055409;28;20115;-62
2022/02/12 08:07:28;;;;;;;3.22;2.85;;;5.10;81.50;;;;;;5052732;28;20033;-62
2022/02/12 08:11:22;;;;;;;2.97;2.67;;;5.00;81.30;;;;;;5055100;28;20064;-62
2022/02/12 08:12:48;;;;;;;2.90;2.70;;;5.10;81.50;;;;;;5049798;28;20052;-62
2022/02/12 08:15:13;;;;;;;3.63;2.83;;;5.10;81.60;;;;;;5060459;28;20528;-62
2022/02/12 08:17:39;;;;;;;3.08;2.78;;;5.10;81.50;;;;;;5059434;28;20392;-62
2022/02/12 08:20:05;;;;;;;3.35;3.05;;;5.20;81.70;;;;;;5057052;28;20029;-62
2022/02/12 08:22:31;;;;;;;3.50;3.20;;;5.20;81.40;;;;;;5054560;28;20029;-62
2022/02/12 08:24:57;;;;;;;3.42;3.13;;;5.20;81.30;;;;;;5043353;28;20433;-62
2022/02/12 08:27:27;;;;;;;3.13;2.80;;;5.20;81.40;;;;;;5058197;28;20027;-62
2022/02/12 08:29:52;;;;;;;3.90;2.97;;;5.20;80.90;;;;;;5053029;28;20063;-62
2022/02/12 08:32:18;;;;;;;3.20;2.90;;;5.10;80.90;;;;;;5053374;28;20048;-62
2022/02/12 08:34:44;;;;;;;3.50;3.05;;;5.10;81.20;;;;;;5058439;28;20056;-62
2022/02/12 08:37:10;;;;;;;4.05;3.28;;;5.10;81.30;;;;;;5053374;28;20100;-62
2022/02/12 08:39:36;;;;;;;2.97;2.70;;;5.20;81.50;;;;;;5051854;28;20053;-62
2022/02/12 08:42:02;;;;;;;2.90;2.70;;;5.20;81.40;;;;;;5052740;28;20516;-62
2022/02/12 08:44:27;;;;;;;3.40;2.88;;;5.30;81.30;;;;;;5053217;28;20535;-62
2022/02/12 08:46:53;;;;;;;2.95;2.65;;;5.30;81.10;;;;;;5048510;28;20116;-62
2022/02/12 08:49:19;;;;;;;2.80;2.50;;;5.40;80.80;;;;;;5044275;28;20044;-62
2022/02/12 08:51:45;;;;;;;2.60;2.40;;;5.40;80.50;;;;;;5050816;28;20374;-62
2022/02/12 08:54:12;;;;;;;3.03;2.70;;;5.40;80.20;;;;;;5052988;28;20025;-62
2022/02/12 08:56:40;;;;;;;2.70;2.50;;;5.40;80.10;;;;;;5054772;28;20025;-62
2022/02/12 08:59:07;;;;;;;2.85;2.60;;;5.40;80.10;;;;;;5052491;28;20074;-62
2022/02/12 09:01:33;;;;;;;2.60;2.42;;;5.40;80.10;;;;;;5048789;28;20431;-62
2022/02/12 09:03:59;;;;;;;2.88;2.50;;;5.50;80.00;;;;;;5054652;28;20108;-62
2022/02/12 09:06:25;;;;;;;2.90;2.60;;;5.50;80.00;;;;;;5052055;28;20074;-62
2022/02/12 09:08:51;;;;;;;2.60;2.40;;;5.50;79.90;;;;;;5060652;28;20108;-62
2022/02/12 09:11:22;;;;;;;2.97;2.70;;;5.50;79.70;;;;;;5052611;28;20504;-62
2022/02/12 09:13:49;;;;;;;2.58;2.38;;;5.60;79.70;;;;;;5051864;28;20333;-63
2022/02/12 09:16:16;;;;;;;2.33;2.20;;;5.60;79.50;;;;;;5062660;28;20029;-62
2022/02/12 09:18:42;;;;;;;2.67;2.47;;;5.60;79.20;;;;;;5052176;28;20028;-62
2022/02/12 09:21:08;;;;;;;2.42;2.33;;;5.60;78.90;;;;;;5051281;28;20021;-62
2022/02/12 09:23:33;;;;;;;2.60;2.40;;;5.60;78.80;;;;;;5052304;28;20021;-62
2022/02/12 09:25:59;;;;;;;2.58;2.38;;;5.60;78.80;;;;;;5047209;28;20024;-62
2022/02/12 09:28:25;;;;;;;2.60;2.40;;;5.60;78.90;;;;;;5056168;28;20024;-62
2022/02/12 09:30:51;;;;;;;2.42;2.22;;;5.60;79.00;;;;;;5051590;28;20116;-62
2022/02/12 09:33:16;;;;;;;2.33;2.15;;;5.60;78.90;;;;;;5052246;28;20041;-62
2022/02/12 09:35:42;;;;;;;3.63;2.83;;;5.60;78.60;;;;;;5058547;28;20079;-62
2022/02/12 09:38:08;;;;;;;3.28;2.55;;;5.60;78.40;;;;;;5057949;28;20037;-62
2022/02/12 09:40:35;;;;;;;2.78;2.58;;;5.60;78.40;;;;;;5051527;28;20067;-62
2022/02/12 09:43:01;;;;;;;2.92;2.65;;;5.60;78.50;;;;;;5042274;28;20504;-63
2022/02/12 09:45:39;;;;;;;3.03;2.58;;;5.60;78.40;;;;;;5053348;28;20522;-62
2022/02/12 09:48:09;;;;;;;2.38;2.20;;;5.60;78.30;;;;;;5058421;28;20475;-62
2022/02/12 09:50:37;;;;;;;2.70;2.50;;;5.60;78.30;;;;;;5052467;28;20492;-62
2022/02/12 09:53:03;;;;;;;2.85;2.65;;;5.60;78.30;;;;;;5072580;28;20116;-62
2022/02/12 09:55:31;;;;;;;3.10;2.80;;;5.60;78.10;;;;;;5066149;28;20021;-62
2022/02/12 09:57:58;;;;;;;2.83;2.63;;;5.70;78.20;;;;;;5052826;28;20029;-61
2022/02/12 10:00:23;;;;;;;2.70;2.50;;;5.70;78.20;;;;;;5052426;28;20025;-62
2022/02/12 10:02:49;;;;;;;2.78;2.58;;;5.70;78.40;;;;;;5048268;28;20090;-62
2022/02/12 10:05:19;;;;;;;2.75;2.55;;;5.70;78.40;;;;;;5049941;28;20501;-62
2022/02/12 10:07:51;;;;;;;2.95;2.70;;;5.80;78.20;;;;;;5051972;28;20033;-62
2022/02/12 10:10:19;;;;;;;3.58;2.90;;;5.80;78.00;;;;;;5051157;28;20508;-62
2022/02/12 10:12:48;;;;;;;3.10;2.80;;;5.80;77.90;;;;;;5050585;28;20021;-62
2022/02/12 10:15:25;;;;;;;3.63;3.28;;;5.90;77.90;;;;;;5050562;28;20053;-62
2022/02/12 10:17:53;;;;;;;3.58;3.25;;;5.90;77.60;;;;;;5051642;28;20029;-62
2022/02/12 10:20:26;;;;;;;3.42;3.13;;;5.90;77.50;;;;;;5052359;28;20370;-62
2022/02/12 10:22:53;;;;;;;4.15;3.30;;;5.90;77.20;;;;;;5062999;28;20154;-62
2022/02/12 10:25:20;;;;;;;3.38;3.08;;;5.90;76.90;;;;;;5076470;28;20028;-62
2022/02/12 10:27:49;;;;;;;3.20;2.90;;;5.80;76.50;;;;;;5056855;28;20029;-62
2022/02/12 10:30:15;;;;;;;4.63;3.30;;;5.90;76.30;;;;;;5054684;28;20017;-62
2022/02/12 10:32:41;;;;;;;3.15;2.95;;;5.90;76.30;;;;;;5050609;28;20060;-62
2022/02/12 10:35:11;;;;;;;3.40;3.00;;;5.80;76.20;;;;;;5052158;28;20053;-62
2022/02/12 10:37:43;;;;;;;3.20;2.90;;;5.90;76.10;;;;;;5051332;28;20029;-62
2022/02/12 10:40:10;;;;;;;3.25;3.00;;;5.90;75.80;;;;;;5067480;28;20025;-62
2022/02/12 10:42:43;;;;;;;4.47;3.45;;;5.90;75.70;;;;;;5076478;28;20025;-62
2022/02/12 10:45:12;;;;;;;3.75;2.88;;;5.90;75.70;;;;;;5076308;28;20035;-61
2022/02/12 10:47:38;;;;;;;3.20;2.70;;;6.00;75.80;;;;;;5075756;28;20036;-62
2022/02/12 10:50:04;;;;;;;3.78;3.05;;;6.00;75.80;;;;;;5066003;28;20072;-62
2022/02/12 10:52:44;;;;;;;3.10;2.80;;;6.00;75.20;;;;;;5070648;28;20052;-62
2022/02/12 10:55:40;;;;;;;4.22;2.90;;;6.10;74.50;;;;;;5069329;28;20027;-62
2022/02/12 10:58:08;;;;;;;4.30;3.65;;;6.10;74.30;;;;;;5041911;28;20044;-62
2022/02/12 11:00:43;;;;;;;3.72;3.40;;;6.10;74.90;;;;;;5068803;28;20066;-62
2022/02/12 11:03:12;;;;;;;3.95;3.60;;;6.10;75.70;;;;;;5065047;28;20033;-62
2022/02/12 11:05:42;;;;;;;3.72;3.42;;;6.10;75.30;;;;;;5053524;28;20025;-62
2022/02/12 11:08:09;;;;;;;3.63;3.28;;;6.10;75.40;;;;;;5044237;28;20392;-62
2022/02/12 11:10:37;;;;;;;3.30;3.00;;;6.20;75.20;;;;;;5055287;28;20048;-62
2022/02/12 11:13:04;;;;;;;5.10;3.10;;;6.20;74.80;;;;;;5055160;28;20025;-62
2022/02/12 11:15:31;;;;;;;3.22;2.92;;;6.20;74.60;;;;;;5070362;28;20051;-62
2022/02/12 11:17:59;;;;;;;3.10;2.80;;;6.10;74.30;;;;;;5075354;28;20029;-62
2022/02/12 11:20:27;;;;;;;4.28;3.35;;;6.10;74.30;;;;;;5063211;28;20104;-62
2022/02/12 11:23:25;;;;;;;3.35;2.72;;;6.10;74.30;;;;;;5060934;28;20317;-62
2022/02/12 11:25:52;;;;;;;2.92;2.70;;;6.10;74.40;;;;;;5071097;28;20118;-62
2022/02/12 11:28:25;;;;;;;3.33;2.90;;;6.10;74.50;;;;;;5055109;28;20033;-62
2022/02/12 11:31:24;;;;;;;4.20;2.85;;;6.10;75.10;;;;;;5055169;28;20401;-62
2022/02/12 11:34:13;;;;;;;4.70;3.13;;;6.20;74.40;;;;;;5056391;28;20060;-62
2022/02/12 11:36:41;;;;;;;3.78;2.97;;;6.10;74.40;;;;;;5044502;28;20029;-62
2022/02/12 11:39:15;;;;;;;3.85;3.22;;;6.20;74.50;;;;;;5055147;28;20029;-62
2022/02/12 11:41:43;;;;;;;3.90;3.30;;;6.20;74.60;;;;;;5050631;28;20029;-62
2022/02/12 11:44:09;;;;;;;4.45;3.22;;;6.20;74.60;;;;;;5051776;28;20455;-62
2022/02/12 11:46:41;;;;;;;3.63;3.20;;;6.20;74.50;;;;;;5055251;28;20124;-62
2022/02/12 11:49:39;;;;;;;6.28;4.65;;;6.20;74.30;;;;;;5070402;28;20104;-62
2022/02/12 11:52:17;;;;;;;6.57;4.43;;;6.20;74.10;;;;;;5054508;28;20354;-62
2022/02/12 11:55:00;;;;;;;6.07;4.60;;;6.10;74.10;;;;;;5074028;28;20021;-62
2022/02/12 11:57:26;;;;;;;5.22;4.72;;;6.10;74.10;;;;;;5054539;28;20029;-62
2022/02/12 12:00:12;;;;;;;7.05;5.57;;;6.10;74.10;;;;;;5054701;28;20029;-62
2022/02/12 12:02:46;;;;;;;7.57;5.03;;;6.10;73.90;;;;;;5047677;28;20480;-62
2022/02/12 12:05:11;;;;;;;5.68;5.07;;;6.10;73.90;;;;;;5069936;28;20066;-62
2022/02/12 12:10:27;;;;;;;6.18;4.90;;;6.10;73.80;;;;;;5073990;28;20029;-62
2022/02/12 12:13:27;;;;;;;6.18;4.70;;;6.00;74.10;;;;;;5054208;28;20044;-62
2022/02/12 12:15:58;;;;;;;7.82;4.63;;;6.00;74.10;;;;;;5041295;28;20045;-62
2022/02/12 12:18:27;;;;;;;5.95;4.75;;;6.00;74.10;;;;;;5054806;28;20041;-62
2022/02/12 12:20:53;;;;;;;6.05;4.55;;;6.00;74.00;;;;;;5070864;28;20032;-62
2022/02/12 12:23:20;;;;;;;5.13;4.40;;;6.00;74.10;;;;;;5073694;28;20389;-62
2022/02/12 12:26:00;;;;;;;6.70;4.40;;;6.00;73.80;;;;;;5063750;28;20107;-62
2022/02/12 12:28:40;;;;;;;5.70;4.38;;;6.00;73.60;;;;;;5054039;28;20500;-62
2022/02/12 12:31:08;;;;;;;7.93;4.78;;;6.00;73.50;;;;;;5052738;28;20028;-62
2022/02/12 12:33:38;;;;;;;5.97;4.50;;;6.00;73.60;;;;;;5063276;28;20036;-61
2022/02/12 12:36:07;;;;;;;5.63;4.40;;;6.00;73.60;;;;;;5053932;28;20021;-62
2022/02/12 12:38:39;;;;;;;6.50;4.47;;;6.00;73.60;;;;;;5053241;28;20112;-61
2022/02/12 12:41:24;;;;;;;4.22;3.72;;;6.00;73.60;;;;;;5053980;28;20025;-62
2022/02/12 12:44:16;;;;;;;4.85;4.00;;;6.00;73.30;;;;;;5056651;28;20016;-62
2022/02/12 12:46:49;;;;;;;8.65;4.53;;;5.90;73.00;;;;;;5060474;28;20024;-62
2022/02/12 12:49:33;;;;;;;5.13;3.90;;;5.90;72.90;;;;;;5042631;28;20540;-62
2022/02/12 12:52:00;;;;;;;4.60;3.60;;;5.90;72.60;;;;;;5073641;28;20054;-62
2022/02/12 12:54:34;;;;;;;4.72;4.18;;;5.90;72.50;;;;;;5069294;28;20082;-62
2022/02/12 12:57:02;;;;;;;6.85;5.38;;;5.90;72.50;;;;;;5054315;28;20071;-62
2022/02/12 12:59:29;;;;;;;7.05;5.43;;;5.90;72.70;;;;;;5053450;28;20036;-62